Time;durP1;ratioP1;P1;durP2;ratioP2;P2;SDS_P1;SDS_P2;PMS_P1;PMS_P2;Temp;Humidity;BMP_temperature;BMP_pressure;BME280_temperature;BME280_humidity;BME280_pressure;Samples;Min_cycle;Max_cycle;Signal;HPM_P1;HPM_P2
2023/05/05 00:00:30;;;;;;;6.10;3.33;;;;;;;;;;5041056;28;20925;-62
2023/05/05 00:02:57;;;;;;;4.75;3.17;;;;;;;;;;5041060;28;20878;-61
2023/05/05 00:05:24;;;;;;;5.20;3.70;;;;;;;;;;5042995;28;20953;-61
2023/05/05 00:07:53;;;;;;;5.47;3.13;;;;;;;;;;5041724;28;20411;-62
2023/05/05 00:10:19;;;;;;;4.03;3.33;;;;;;;;;;5043074;28;20421;-62
2023/05/05 00:12:46;;;;;;;5.85;3.58;;;;;;;;;;5041335;28;20427;-62
2023/05/05 00:15:13;;;;;;;6.93;3.00;;;;;;;;;;5040685;28;20558;-62
2023/05/05 00:17:40;;;;;;;4.95;3.17;;;;;;;;;;5040417;28;20415;-62
2023/05/05 00:20:08;;;;;;;4.13;3.15;;;;;;;;;;5043458;28;20480;-62
2023/05/05 00:22:35;;;;;;;6.25;3.15;;;;;;;;;;5049968;28;20469;-62
2023/05/05 00:25:04;;;;;;;5.00;3.42;;;;;;;;;;5048361;28;20488;-62
2023/05/05 00:27:31;;;;;;;5.50;3.38;;;;;;;;;;5039945;28;20430;-61
2023/05/05 00:29:58;;;;;;;5.75;3.47;;;;;;;;;;5041837;28;20409;-62
2023/05/05 00:32:25;;;;;;;4.78;3.30;;;;;;;;;;5038738;28;20427;-62
2023/05/05 00:34:52;;;;;;;4.50;3.30;;;;;;;;;;5031195;28;20481;-63
2023/05/05 00:37:19;;;;;;;4.90;3.40;;;;;;;;;;5030956;28;20999;-63
2023/05/05 00:39:46;;;;;;;3.80;3.25;;;;;;;;;;5032051;28;20789;-62
2023/05/05 00:42:15;;;;;;;4.68;3.10;;;;;;;;;;5039503;28;20425;-62
2023/05/05 00:44:43;;;;;;;5.00;3.30;;;;;;;;;;5038845;28;20490;-62
2023/05/05 00:47:11;;;;;;;5.68;3.60;;;;;;;;;;5041544;28;20496;-62
2023/05/05 00:49:38;;;;;;;4.30;3.38;;;;;;;;;;5042202;28;20410;-62
2023/05/05 00:52:06;;;;;;;4.90;3.30;;;;;;;;;;5043177;28;20446;-62
2023/05/05 00:54:33;;;;;;;5.85;3.28;;;;;;;;;;5049015;28;20416;-62
2023/05/05 00:57:01;;;;;;;5.82;3.20;;;;;;;;;;5038947;28;20472;-62
2023/05/05 00:59:30;;;;;;;4.60;3.42;;;;;;;;;;5041118;28;20475;-61
2023/05/05 01:01:57;;;;;;;6.20;3.28;;;;;;;;;;5042114;28;20409;-62
2023/05/05 01:04:25;;;;;;;6.47;3.75;;;;;;;;;;5040467;28;20472;-62
2023/05/05 01:06:54;;;;;;;5.07;3.17;;;;;;;;;;5039914;28;20825;-62
2023/05/05 01:09:26;;;;;;;4.43;3.40;;;;;;;;;;5039842;28;20434;-62
2023/05/05 01:11:57;;;;;;;5.70;3.63;;;;;;;;;;5039104;28;20497;-62
2023/05/05 01:14:28;;;;;;;4.90;3.40;;;;;;;;;;5040910;28;20904;-62
2023/05/05 01:16:59;;;;;;;4.50;3.30;;;;;;;;;;5041473;28;20459;-62
2023/05/05 01:19:45;;;;;;;5.40;3.60;;;;;;;;;;5040752;28;20520;-62
2023/05/05 01:22:14;;;;;;;5.43;3.60;;;;;;;;;;5046450;28;20414;-62
2023/05/05 01:24:50;;;;;;;5.00;3.50;;;;;;;;;;5041726;28;20910;-61
2023/05/05 01:27:44;;;;;;;5.07;3.90;;;;;;;;;;5042446;28;20429;-61
2023/05/05 01:30:21;;;;;;;5.78;3.60;;;;;;;;;;5039689;28;20419;-62
2023/05/05 01:32:53;;;;;;;5.45;3.47;;;;;;;;;;5039113;28;20947;-62
2023/05/05 01:35:23;;;;;;;3.90;3.45;;;;;;;;;;5039895;28;20480;-62
2023/05/05 01:37:51;;;;;;;4.53;3.47;;;;;;;;;;5041319;28;20454;-63
2023/05/05 01:40:20;;;;;;;6.53;3.47;;;;;;;;;;5043577;28;20473;-61
2023/05/05 01:42:48;;;;;;;5.53;3.90;;;;;;;;;;5039063;28;20818;-62
2023/05/05 01:45:15;;;;;;;5.43;3.58;;;;;;;;;;5040269;28;20869;-62
2023/05/05 01:47:43;;;;;;;5.95;4.18;;;;;;;;;;5041497;28;20409;-62
2023/05/05 01:50:12;;;;;;;5.25;3.80;;;;;;;;;;5039577;28;20415;-61
2023/05/05 01:52:41;;;;;;;6.00;4.00;;;;;;;;;;5045075;28;20416;-60
2023/05/05 01:55:08;;;;;;;7.28;3.75;;;;;;;;;;5044410;28;20428;-61
2023/05/05 01:57:36;;;;;;;6.20;4.50;;;;;;;;;;5041593;28;20523;-61
2023/05/05 02:00:03;;;;;;;6.10;4.10;;;;;;;;;;5045260;28;20483;-63
2023/05/05 02:02:33;;;;;;;4.55;3.90;;;;;;;;;;5044188;28;20413;-62
2023/05/05 02:05:00;;;;;;;5.85;3.90;;;;;;;;;;5042704;28;20507;-62
2023/05/05 02:07:30;;;;;;;5.18;3.90;;;;;;;;;;5043805;28;20413;-62
2023/05/05 02:09:57;;;;;;;6.55;4.15;;;;;;;;;;5045633;28;20471;-62
2023/05/05 02:12:24;;;;;;;5.70;3.90;;;;;;;;;;5044183;28;20409;-61
2023/05/05 02:14:51;;;;;;;6.93;4.03;;;;;;;;;;5045274;28;20454;-62
2023/05/05 02:17:19;;;;;;;5.80;4.18;;;;;;;;;;5041099;28;20453;-62
2023/05/05 02:19:46;;;;;;;7.35;4.03;;;;;;;;;;5044090;28;20425;-62
2023/05/05 02:22:15;;;;;;;5.60;4.20;;;;;;;;;;5046594;28;20902;-61
2023/05/05 02:24:43;;;;;;;4.70;4.20;;;;;;;;;;5048679;28;20459;-62
2023/05/05 02:27:11;;;;;;;7.10;4.38;;;;;;;;;;5041603;28;20457;-62
2023/05/05 02:29:42;;;;;;;6.32;4.72;;;;;;;;;;5044559;28;20929;-61
2023/05/05 02:32:10;;;;;;;6.00;4.38;;;;;;;;;;5044834;28;20531;-62
2023/05/05 02:34:39;;;;;;;6.47;4.70;;;;;;;;;;5043377;28;20451;-62
2023/05/05 02:37:08;;;;;;;7.20;5.35;;;;;;;;;;5041965;28;20458;-62
2023/05/05 02:39:37;;;;;;;6.57;5.32;;;;;;;;;;5043736;28;20425;-62
2023/05/05 02:42:06;;;;;;;7.75;5.20;;;;;;;;;;5044734;28;20528;-62
2023/05/05 02:44:34;;;;;;;5.60;4.85;;;;;;;;;;5041000;28;20453;-61
2023/05/05 02:47:03;;;;;;;8.20;5.10;;;;;;;;;;5044252;28;20448;-62
2023/05/05 02:49:30;;;;;;;6.88;5.00;;;;;;;;;;5033328;28;20448;-62
2023/05/05 02:51:57;;;;;;;7.22;5.35;;;;;;;;;;5041219;28;20422;-62
2023/05/05 02:54:24;;;;;;;7.22;5.75;;;;;;;;;;5053429;28;20784;-64
2023/05/05 02:56:51;;;;;;;8.37;6.00;;;;;;;;;;5045174;28;20423;-62
2023/05/05 02:59:28;;;;;;;9.07;6.88;;;;;;;;;;5041671;28;20430;-62
2023/05/05 03:02:01;;;;;;;9.07;6.70;;;;;;;;;;5042270;28;20468;-62
2023/05/05 03:04:30;;;;;;;8.18;6.57;;;;;;;;;;5041667;28;20407;-61
2023/05/05 03:07:01;;;;;;;9.98;6.90;;;;;;;;;;5040670;28;20418;-62
2023/05/05 03:09:31;;;;;;;11.13;7.18;;;;;;;;;;5043668;28;20405;-61
2023/05/05 03:12:01;;;;;;;10.52;7.22;;;;;;;;;;5041276;28;20473;-60
2023/05/05 03:14:30;;;;;;;12.15;6.68;;;;;;;;;;5043490;28;20450;-61
2023/05/05 03:16:58;;;;;;;10.68;7.40;;;;;;;;;;5043535;28;20420;-61
2023/05/05 03:19:25;;;;;;;12.23;8.05;;;;;;;;;;5041918;28;20476;-62
2023/05/05 03:21:52;;;;;;;10.10;8.55;;;;;;;;;;5048996;28;20417;-62
2023/05/05 03:24:20;;;;;;;10.98;8.48;;;;;;;;;;5049072;28;20427;-62
2023/05/05 03:26:48;;;;;;;10.63;8.40;;;;;;;;;;5045537;28;20429;-62
2023/05/05 03:29:15;;;;;;;10.70;8.07;;;;;;;;;;5043732;28;20409;-62
2023/05/05 03:31:44;;;;;;;9.90;7.70;;;;;;;;;;5042047;28;20503;-62
2023/05/05 03:34:11;;;;;;;8.60;7.70;;;;;;;;;;5041236;28;20452;-62
2023/05/05 03:36:38;;;;;;;8.95;7.70;;;;;;;;;;5043900;28;20761;-62
2023/05/05 03:39:06;;;;;;;11.07;7.85;;;;;;;;;;5043028;28;20471;-62
2023/05/05 03:41:33;;;;;;;12.98;8.55;;;;;;;;;;5043351;28;20417;-62
2023/05/05 03:44:00;;;;;;;13.50;8.68;;;;;;;;;;5042193;28;20473;-62
2023/05/05 03:46:27;;;;;;;12.07;8.50;;;;;;;;;;5040702;28;20859;-62
2023/05/05 03:48:56;;;;;;;12.20;9.15;;;;;;;;;;5042621;28;20421;-61
2023/05/05 03:51:24;;;;;;;9.98;8.30;;;;;;;;;;5045136;28;20886;-63
2023/05/05 03:53:51;;;;;;;10.23;9.13;;;;;;;;;;5047561;28;20425;-61
2023/05/05 03:56:18;;;;;;;12.30;9.15;;;;;;;;;;5045415;28;20421;-62
2023/05/05 03:58:45;;;;;;;10.85;8.90;;;;;;;;;;5040732;28;20472;-62
2023/05/05 04:01:12;;;;;;;11.63;9.70;;;;;;;;;;5041497;28;20471;-62
2023/05/05 04:03:38;;;;;;;11.25;9.40;;;;;;;;;;5043144;28;20966;-61
2023/05/05 04:06:07;;;;;;;13.15;10.05;;;;;;;;;;5041179;28;20732;-62
2023/05/05 04:08:34;;;;;;;11.33;10.03;;;;;;;;;;5041083;28;20415;-61
2023/05/05 04:11:02;;;;;;;15.35;10.13;;;;;;;;;;5042988;28;20415;-61
2023/05/05 04:13:29;;;;;;;12.13;10.30;;;;;;;;;;5041686;28;20429;-64
2023/05/05 04:15:56;;;;;;;14.48;10.75;;;;;;;;;;5042559;28;20421;-62
2023/05/05 04:18:23;;;;;;;13.07;10.60;;;;;;;;;;5041287;28;20967;-63
2023/05/05 04:20:50;;;;;;;13.88;10.60;;;;;;;;;;5040511;28;20921;-62
2023/05/05 04:23:18;;;;;;;15.85;11.40;;;;;;;;;;5045519;28;20825;-63
2023/05/05 04:25:45;;;;;;;13.15;11.30;;;;;;;;;;5043899;28;20423;-63
2023/05/05 04:28:12;;;;;;;14.10;11.37;;;;;;;;;;5042460;28;20413;-63
2023/05/05 04:30:39;;;;;;;13.07;11.20;;;;;;;;;;5041434;28;20411;-63
2023/05/05 04:33:06;;;;;;;15.27;10.95;;;;;;;;;;5039833;28;20422;-63
2023/05/05 04:35:33;;;;;;;16.00;11.00;;;;;;;;;;5051231;28;20412;-62
2023/05/05 04:38:00;;;;;;;16.83;11.50;;;;;;;;;;5047569;28;20897;-62
2023/05/05 04:40:29;;;;;;;14.80;12.00;;;;;;;;;;5057294;28;20431;-62
2023/05/05 04:42:56;;;;;;;17.55;12.02;;;;;;;;;;5043183;28;20494;-62
2023/05/05 04:45:23;;;;;;;17.65;13.07;;;;;;;;;;5039303;28;20414;-62
2023/05/05 04:47:50;;;;;;;18.20;13.15;;;;;;;;;;5041265;28;20475;-62
2023/05/05 04:50:17;;;;;;;18.40;13.50;;;;;;;;;;5041781;28;20413;-62
2023/05/05 04:52:44;;;;;;;16.73;12.95;;;;;;;;;;5043210;28;20932;-62
2023/05/05 04:55:11;;;;;;;16.35;13.82;;;;;;;;;;5047761;28;20425;-63
2023/05/05 04:57:39;;;;;;;17.60;13.68;;;;;;;;;;5039730;28;20810;-62
2023/05/05 05:00:08;;;;;;;16.75;13.77;;;;;;;;;;5040851;28;20429;-62
2023/05/05 05:02:36;;;;;;;19.30;13.85;;;;;;;;;;5042174;28;20757;-62
2023/05/05 05:05:03;;;;;;;16.40;13.52;;;;;;;;;;5037674;28;20434;-62
2023/05/05 05:07:30;;;;;;;18.38;14.18;;;;;;;;;;5041650;28;20483;-63
2023/05/05 05:09:57;;;;;;;17.92;13.50;;;;;;;;;;5040074;28;20411;-63
2023/05/05 05:12:24;;;;;;;19.55;13.77;;;;;;;;;;5039579;28;20418;-61
2023/05/05 05:14:52;;;;;;;17.10;13.80;;;;;;;;;;5052096;28;20421;-60
2023/05/05 05:17:21;;;;;;;16.55;13.43;;;;;;;;;;5040230;28;20422;-61
2023/05/05 05:19:48;;;;;;;20.05;14.88;;;;;;;;;;5030636;28;20447;-60
2023/05/05 05:22:15;;;;;;;20.83;14.70;;;;;;;;;;5042151;28;20908;-60
2023/05/05 05:24:42;;;;;;;19.47;15.20;;;;;;;;;;5048709;28;20838;-60
2023/05/05 05:27:09;;;;;;;22.23;15.60;;;;;;;;;;5048548;28;20788;-61
2023/05/05 05:29:36;;;;;;;19.70;15.60;;;;;;;;;;5047287;28;20505;-60
2023/05/05 05:32:04;;;;;;;20.13;15.40;;;;;;;;;;5041928;28;20425;-60
2023/05/05 05:34:31;;;;;;;20.98;16.23;;;;;;;;;;5042896;28;20447;-61
2023/05/05 05:36:58;;;;;;;19.85;15.80;;;;;;;;;;5048801;28;20962;-63
2023/05/05 05:39:25;;;;;;;20.90;16.65;;;;;;;;;;5053471;28;20792;-61
2023/05/05 05:41:52;;;;;;;24.30;16.33;;;;;;;;;;5049418;28;20534;-60
2023/05/05 05:44:19;;;;;;;22.40;15.80;;;;;;;;;;5042017;28;20448;-61
2023/05/05 05:46:46;;;;;;;20.08;15.98;;;;;;;;;;5042996;28;20417;-61
2023/05/05 05:49:15;;;;;;;19.00;16.33;;;;;;;;;;5046821;28;20417;-60
2023/05/05 05:51:42;;;;;;;18.88;15.63;;;;;;;;;;5052877;28;20426;-63
2023/05/05 05:54:09;;;;;;;20.77;16.10;;;;;;;;;;5047647;28;20422;-60
2023/05/05 05:56:36;;;;;;;20.00;16.05;;;;;;;;;;5051874;28;20417;-62
2023/05/05 05:59:06;;;;;;;19.23;16.02;;;;;;;;;;5042604;28;20858;-60
2023/05/05 06:01:33;;;;;;;19.60;15.93;;;;;;;;;;5039474;28;20439;-59
2023/05/05 06:04:00;;;;;;;19.73;15.95;;;;;;;;;;5040432;28;20409;-62
2023/05/05 06:06:29;;;;;;;19.17;15.63;;;;;;;;;;5041532;28;20417;-58
2023/05/05 06:08:56;;;;;;;20.58;16.05;;;;;;;;;;5038829;28;20415;-61
2023/05/05 06:11:23;;;;;;;20.35;15.43;;;;;;;;;;5042190;28;20421;-60
2023/05/05 06:13:50;;;;;;;21.08;15.15;;;;;;;;;;5046222;28;20416;-59
2023/05/05 06:16:17;;;;;;;18.77;15.35;;;;;;;;;;5048312;28;20950;-61
2023/05/05 06:18:44;;;;;;;20.60;16.50;;;;;;;;;;5046885;28;20447;-60
2023/05/05 06:21:12;;;;;;;21.42;16.38;;;;;;;;;;5038850;28;20985;-60
2023/05/05 06:23:41;;;;;;;19.13;15.15;;;;;;;;;;5047156;28;20495;-58
2023/05/05 06:26:08;;;;;;;18.73;15.63;;;;;;;;;;5038541;28;20464;-59
2023/05/05 06:28:34;;;;;;;17.98;14.88;;;;;;;;;;5041963;28;20421;-58
2023/05/05 06:31:01;;;;;;;17.73;14.40;;;;;;;;;;5036595;28;20462;-58
2023/05/05 06:33:28;;;;;;;18.55;15.15;;;;;;;;;;5038782;28;20415;-63
2023/05/05 06:35:56;;;;;;;18.52;15.00;;;;;;;;;;5047071;28;20429;-63
2023/05/05 06:38:23;;;;;;;17.10;14.88;;;;;;;;;;5046390;28;20472;-62
2023/05/05 06:40:51;;;;;;;18.37;15.43;;;;;;;;;;5040243;28;20434;-62
2023/05/05 06:43:18;;;;;;;16.45;14.57;;;;;;;;;;5041785;28;20410;-63
2023/05/05 06:45:45;;;;;;;16.65;14.77;;;;;;;;;;5043273;28;20473;-62
2023/05/05 06:48:12;;;;;;;18.42;14.57;;;;;;;;;;5043886;28;20419;-64
2023/05/05 06:50:39;;;;;;;19.83;14.43;;;;;;;;;;5042206;28;20800;-62
2023/05/05 06:53:06;;;;;;;19.88;14.60;;;;;;;;;;5047482;28;20433;-63
2023/05/05 06:55:33;;;;;;;17.95;13.70;;;;;;;;;;5056565;28;20420;-62
2023/05/05 06:58:02;;;;;;;16.75;13.45;;;;;;;;;;5048642;28;20414;-62
2023/05/05 07:00:29;;;;;;;15.98;13.32;;;;;;;;;;5051850;28;20489;-60
2023/05/05 07:02:56;;;;;;;14.65;11.90;;;;;;;;;;5043975;28;20475;-62
2023/05/05 07:05:23;;;;;;;15.57;12.05;;;;;;;;;;5056015;28;20769;-61
2023/05/05 07:07:53;;;;;;;15.10;12.27;;;;;;;;;;5046922;28;20841;-61
2023/05/05 07:10:20;;;;;;;17.13;12.05;;;;;;;;;;5043147;28;20421;-63
2023/05/05 07:12:47;;;;;;;13.00;10.95;;;;;;;;;;5040096;28;20840;-61
2023/05/05 07:15:16;;;;;;;15.60;10.93;;;;;;;;;;5049101;28;20431;-62
2023/05/05 07:17:43;;;;;;;13.05;10.55;;;;;;;;;;5045897;28;20426;-64
2023/05/05 07:20:10;;;;;;;14.20;10.82;;;;;;;;;;5056962;28;20850;-62
2023/05/05 07:22:37;;;;;;;13.27;10.80;;;;;;;;;;5051941;28;20427;-61
2023/05/05 07:25:05;;;;;;;13.02;10.13;;;;;;;;;;5047354;28;20478;-63
2023/05/05 07:27:32;;;;;;;12.68;10.35;;;;;;;;;;5044063;28;20425;-61
2023/05/05 07:30:00;;;;;;;13.00;10.07;;;;;;;;;;5035669;28;20419;-62
2023/05/05 07:32:28;;;;;;;14.00;10.33;;;;;;;;;;5044323;28;20500;-61
2023/05/05 07:34:55;;;;;;;13.60;10.70;;;;;;;;;;5046275;28;20451;-60
2023/05/05 07:37:22;;;;;;;13.40;9.90;;;;;;;;;;5046782;28;20421;-62
2023/05/05 07:39:49;;;;;;;13.07;9.82;;;;;;;;;;5041933;28;20483;-62
2023/05/05 07:42:16;;;;;;;11.67;9.97;;;;;;;;;;5040949;28;20433;-63
2023/05/05 07:44:43;;;;;;;10.65;9.55;;;;;;;;;;5038184;28;20442;-61
2023/05/05 07:47:10;;;;;;;10.70;9.00;;;;;;;;;;5042470;28;20445;-61
2023/05/05 07:49:38;;;;;;;10.43;8.35;;;;;;;;;;5044066;28;20409;-60
2023/05/05 07:52:05;;;;;;;9.53;8.03;;;;;;;;;;5052926;28;20417;-60
2023/05/05 07:54:32;;;;;;;11.63;7.88;;;;;;;;;;5047488;28;20447;-60
2023/05/05 07:57:00;;;;;;;9.38;6.93;;;;;;;;;;5053828;28;20437;-61
2023/05/05 07:59:27;;;;;;;9.82;7.13;;;;;;;;;;5038554;28;20483;-64
2023/05/05 08:01:54;;;;;;;10.73;6.57;;;;;;;;;;5041244;28;20459;-61
2023/05/05 08:04:21;;;;;;;10.00;6.28;;;;;;;;;;5038736;28;20449;-60
2023/05/05 08:06:50;;;;;;;9.95;6.43;;;;;;;;;;5043977;28;20420;-60
2023/05/05 08:09:17;;;;;;;10.93;7.10;;;;;;;;;;5045459;28;20422;-61
2023/05/05 08:11:44;;;;;;;9.07;7.00;;;;;;;;;;5049282;28;21199;-62
2023/05/05 08:14:11;;;;;;;9.50;6.63;;;;;;;;;;5047287;28;20911;-60
2023/05/05 08:16:38;;;;;;;11.88;7.43;;;;;;;;;;5045406;28;20751;-61
2023/05/05 08:19:05;;;;;;;8.60;7.35;;;;;;;;;;5040933;28;21164;-60
2023/05/05 08:21:32;;;;;;;8.67;7.50;;;;;;;;;;5051394;28;20833;-61
2023/05/05 08:24:00;;;;;;;10.40;6.60;;;;;;;;;;5051567;28;20428;-67
2023/05/05 08:26:27;;;;;;;10.27;7.00;;;;;;;;;;5037697;28;20433;-67
2023/05/05 08:28:59;;;;;;;8.90;6.97;;;;;;;;;;5040635;28;20895;-66
2023/05/05 08:31:26;;;;;;;8.13;7.20;;;;;;;;;;5044415;28;20419;-64
2023/05/05 08:33:53;;;;;;;10.73;7.28;;;;;;;;;;5046437;28;20425;-62
2023/05/05 08:36:20;;;;;;;11.43;7.75;;;;;;;;;;5052376;28;20904;-65
2023/05/05 08:38:47;;;;;;;10.23;7.50;;;;;;;;;;5041773;28;20424;-65
2023/05/05 08:41:17;;;;;;;8.93;7.32;;;;;;;;;;5040445;28;20435;-64
2023/05/05 08:43:45;;;;;;;9.23;7.13;;;;;;;;;;5040376;28;20425;-63
2023/05/05 08:46:12;;;;;;;10.02;7.53;;;;;;;;;;5037570;28;20879;-61
2023/05/05 08:48:41;;;;;;;8.05;6.90;;;;;;;;;;5039594;28;20843;-62
2023/05/05 08:51:09;;;;;;;9.63;6.88;;;;;;;;;;5045152;28;20419;-62
2023/05/05 08:53:40;;;;;;;10.27;6.63;;;;;;;;;;5044464;28;20435;-62
2023/05/05 08:56:08;;;;;;;9.50;7.10;;;;;;;;;;5057717;28;20425;-61
2023/05/05 08:58:37;;;;;;;8.57;6.13;;;;;;;;;;5043852;28;20473;-63
2023/05/05 09:01:06;;;;;;;11.02;6.20;;;;;;;;;;5032182;28;21124;-62
2023/05/05 09:03:34;;;;;;;8.38;6.00;;;;;;;;;;5037824;28;20424;-62
2023/05/05 09:06:01;;;;;;;6.95;4.93;;;;;;;;;;5037012;28;20417;-63
2023/05/05 09:08:28;;;;;;;6.80;5.32;;;;;;;;;;5036863;28;20494;-61
2023/05/05 09:10:56;;;;;;;8.57;6.10;;;;;;;;;;5035228;28;20422;-63
2023/05/05 09:13:23;;;;;;;7.93;6.25;;;;;;;;;;5038318;28;20421;-62
2023/05/05 09:15:51;;;;;;;8.75;6.32;;;;;;;;;;5045919;28;20425;-62
2023/05/05 09:18:18;;;;;;;7.18;5.40;;;;;;;;;;5044803;28;20417;-61
2023/05/05 09:20:45;;;;;;;6.87;5.77;;;;;;;;;;5039242;28;20420;-62
2023/05/05 09:23:13;;;;;;;7.20;5.70;;;;;;;;;;5044982;28;20917;-62
2023/05/05 09:25:40;;;;;;;7.43;5.45;;;;;;;;;;5045470;28;20943;-62
2023/05/05 09:28:11;;;;;;;6.13;4.93;;;;;;;;;;5040865;28;20417;-61
2023/05/05 09:30:38;;;;;;;9.20;5.25;;;;;;;;;;5043301;28;20470;-61
2023/05/05 09:33:07;;;;;;;8.88;5.50;;;;;;;;;;5038140;28;20955;-62
2023/05/05 09:35:49;;;;;;;5.78;4.88;;;;;;;;;;5049303;28;20482;-62
2023/05/05 09:38:16;;;;;;;8.93;5.78;;;;;;;;;;5042508;28;21084;-62
2023/05/05 09:40:50;;;;;;;7.95;5.32;;;;;;;;;;5038052;28;20983;-63
2023/05/05 09:43:17;;;;;;;7.45;5.07;;;;;;;;;;5039832;28;20765;-61
2023/05/05 09:45:44;;;;;;;8.17;5.50;;;;;;;;;;5040208;28;20976;-62
2023/05/05 09:48:26;;;;;;;7.40;5.97;;;;;;;;;;5038512;28;20415;-62
2023/05/05 09:50:53;;;;;;;7.13;5.30;;;;;;;;;;5048604;28;20851;-62
2023/05/05 09:53:20;;;;;;;9.27;5.00;;;;;;;;;;5050667;28;20453;-62
2023/05/05 09:55:54;;;;;;;7.40;5.50;;;;;;;;;;5050036;28;20956;-61
2023/05/05 09:58:22;;;;;;;7.90;5.00;;;;;;;;;;5045563;28;20423;-63
2023/05/05 10:00:49;;;;;;;6.85;5.50;;;;;;;;;;5038108;28;20785;-62
2023/05/05 10:03:16;;;;;;;7.75;6.00;;;;;;;;;;5037155;28;20421;-63
2023/05/05 10:05:49;;;;;;;7.50;5.93;;;;;;;;;;5045033;28;20466;-60
2023/05/05 10:08:16;;;;;;;8.60;6.35;;;;;;;;;;5032444;28;20430;-61
2023/05/05 10:10:46;;;;;;;8.25;6.30;;;;;;;;;;5040229;28;20483;-61
2023/05/05 10:13:13;;;;;;;7.88;6.25;;;;;;;;;;5040061;28;20441;-63
2023/05/05 10:15:42;;;;;;;7.50;5.78;;;;;;;;;;5040488;28;20419;-62
2023/05/05 10:18:09;;;;;;;6.90;5.53;;;;;;;;;;5040599;28;20413;-63
2023/05/05 10:20:37;;;;;;;8.07;5.50;;;;;;;;;;5044759;28;20499;-63
2023/05/05 10:23:06;;;;;;;9.93;5.65;;;;;;;;;;5052163;28;20483;-61
2023/05/05 10:25:35;;;;;;;6.43;4.82;;;;;;;;;;5051907;28;20413;-62
2023/05/05 10:28:05;;;;;;;6.95;4.55;;;;;;;;;;5047400;28;20425;-61
2023/05/05 10:30:33;;;;;;;5.95;3.00;;;;;;;;;;5045528;28;20422;-65
2023/05/05 10:33:04;;;;;;;6.65;2.58;;;;;;;;;;5037824;28;20485;-61
2023/05/05 10:35:32;;;;;;;5.55;3.08;;;;;;;;;;5046530;28;20423;-64
2023/05/05 10:38:00;;;;;;;4.32;3.30;;;;;;;;;;5051362;28;20799;-62
2023/05/05 10:40:29;;;;;;;5.50;2.90;;;;;;;;;;5045414;28;20514;-62
2023/05/05 10:42:56;;;;;;;6.40;3.20;;;;;;;;;;5050088;28;20425;-62
2023/05/05 10:45:23;;;;;;;7.03;4.45;;;;;;;;;;5049189;28;20792;-62
2023/05/05 10:47:51;;;;;;;6.72;4.38;;;;;;;;;;5043192;28;20489;-62
2023/05/05 10:50:21;;;;;;;6.13;4.70;;;;;;;;;;5048645;28;20465;-61
2023/05/05 10:52:55;;;;;;;6.38;4.30;;;;;;;;;;5050867;28;20417;-63
2023/05/05 10:55:25;;;;;;;7.47;5.00;;;;;;;;;;5048305;28;20897;-66
2023/05/05 10:57:54;;;;;;;8.45;4.90;;;;;;;;;;5054099;28;20429;-62
2023/05/05 11:00:36;;;;;;;5.80;4.50;;;;;;;;;;5041739;28;20430;-62
2023/05/05 11:03:18;;;;;;;6.72;4.60;;;;;;;;;;5027925;28;20460;-63
2023/05/05 11:06:00;;;;;;;5.75;4.35;;;;;;;;;;5034799;28;20784;-61
2023/05/05 11:08:27;;;;;;;6.18;4.22;;;;;;;;;;5046510;28;20475;-61
2023/05/05 11:10:54;;;;;;;6.45;4.03;;;;;;;;;;5042819;28;20427;-65
2023/05/05 11:13:22;;;;;;;8.23;4.40;;;;;;;;;;5042538;28;21141;-63
2023/05/05 11:15:50;;;;;;;6.83;4.30;;;;;;;;;;5048097;28;20421;-63
2023/05/05 11:18:30;;;;;;;6.28;4.03;;;;;;;;;;5044892;28;20894;-63
2023/05/05 11:21:06;;;;;;;6.15;4.05;;;;;;;;;;5043430;28;20444;-63
2023/05/05 11:23:33;;;;;;;6.05;3.95;;;;;;;;;;5042196;28;20524;-63
2023/05/05 11:26:00;;;;;;;6.47;3.88;;;;;;;;;;5040145;28;20419;-63
2023/05/05 11:28:29;;;;;;;6.82;4.70;;;;;;;;;;5041973;28;20417;-62
2023/05/05 11:31:26;;;;;;;5.40;3.70;;;;;;;;;;5042630;28;20453;-62
2023/05/05 11:33:53;;;;;;;4.93;3.80;;;;;;;;;;5002225;28;20414;-62
2023/05/05 11:36:21;;;;;;;5.00;3.72;;;;;;;;;;5029685;28;20427;-63
2023/05/05 11:39:06;;;;;;;6.63;4.03;;;;;;;;;;5042035;28;20957;-63
2023/05/05 11:41:38;;;;;;;4.30;3.72;;;;;;;;;;5039819;28;20417;-62
2023/05/05 11:44:10;;;;;;;5.00;3.67;;;;;;;;;;5043110;28;20492;-63
2023/05/05 11:46:37;;;;;;;4.83;3.83;;;;;;;;;;5043870;28;20528;-62
2023/05/05 11:49:04;;;;;;;4.78;3.45;;;;;;;;;;5039620;28;20415;-63
2023/05/05 11:51:32;;;;;;;5.25;3.92;;;;;;;;;;5042611;28;20412;-62
2023/05/05 11:53:58;;;;;;;4.55;3.42;;;;;;;;;;5047521;28;20409;-62
2023/05/05 11:56:25;;;;;;;6.38;3.90;;;;;;;;;;5043376;28;20817;-62
2023/05/05 11:59:06;;;;;;;6.03;3.97;;;;;;;;;;5043526;28;20832;-61
2023/05/05 12:01:35;;;;;;;7.50;4.30;;;;;;;;;;5041268;28;20467;-61
2023/05/05 12:04:02;;;;;;;4.82;4.10;;;;;;;;;;5042971;28;20434;-61
2023/05/05 12:06:32;;;;;;;5.40;4.03;;;;;;;;;;5043501;28;20827;-66
2023/05/05 12:08:59;;;;;;;8.40;4.20;;;;;;;;;;5049876;28;20417;-62
2023/05/05 12:11:26;;;;;;;4.57;3.63;;;;;;;;;;5048472;28;20969;-65
2023/05/05 12:14:07;;;;;;;6.72;3.83;;;;;;;;;;5040293;28;20457;-65
2023/05/05 12:16:36;;;;;;;6.97;3.95;;;;;;;;;;5048426;28;20833;-65
2023/05/05 12:19:04;;;;;;;6.88;3.80;;;;;;;;;;5045662;28;20417;-65
2023/05/05 12:21:31;;;;;;;6.53;4.43;;;;;;;;;;5044521;28;20453;-63
2023/05/05 12:23:58;;;;;;;5.60;4.20;;;;;;;;;;5050927;28;20433;-63
2023/05/05 12:26:26;;;;;;;7.63;3.70;;;;;;;;;;5042879;28;20939;-63
2023/05/05 12:28:53;;;;;;;3.70;2.58;;;;;;;;;;5039176;28;20423;-62
2023/05/05 12:31:20;;;;;;;3.75;2.50;;;;;;;;;;5038508;28;20417;-63
2023/05/05 12:33:49;;;;;;;4.13;2.05;;;;;;;;;;5041080;28;20942;-65
2023/05/05 12:36:16;;;;;;;2.75;1.70;;;;;;;;;;5043083;28;20454;-64
2023/05/05 12:38:43;;;;;;;2.17;1.38;;;;;;;;;;5046129;28;20427;-63
2023/05/05 12:41:10;;;;;;;2.88;1.20;;;;;;;;;;5044664;28;20421;-63
2023/05/05 12:43:37;;;;;;;3.03;1.50;;;;;;;;;;5040525;28;20427;-64
2023/05/05 12:46:08;;;;;;;2.80;1.60;;;;;;;;;;5039120;28;20497;-65
2023/05/05 12:48:36;;;;;;;3.20;1.75;;;;;;;;;;5039714;28;20411;-65
2023/05/05 12:51:15;;;;;;;2.35;2.10;;;;;;;;;;5046490;28;20551;-63
2023/05/05 12:53:42;;;;;;;2.92;2.00;;;;;;;;;;5047952;28;20476;-64
2023/05/05 12:56:24;;;;;;;4.57;2.40;;;;;;;;;;5042421;28;20430;-67
2023/05/05 12:58:53;;;;;;;3.87;2.30;;;;;;;;;;5047323;28;20535;-68
2023/05/05 13:01:20;;;;;;;2.58;2.20;;;;;;;;;;5039890;28;20455;-65
2023/05/05 13:03:47;;;;;;;3.13;2.35;;;;;;;;;;5038376;28;21087;-66
2023/05/05 13:06:23;;;;;;;3.10;2.67;;;;;;;;;;5040546;28;20420;-66
2023/05/05 13:08:50;;;;;;;3.20;2.50;;;;;;;;;;5040256;28;20481;-66
2023/05/05 13:11:17;;;;;;;3.88;2.78;;;;;;;;;;5047834;28;20420;-67
2023/05/05 13:13:45;;;;;;;4.57;2.40;;;;;;;;;;5041796;28;20409;-65
2023/05/05 13:16:12;;;;;;;2.57;2.37;;;;;;;;;;5038462;28;20422;-67
2023/05/05 13:18:45;;;;;;;2.50;2.28;;;;;;;;;;5049124;28;20467;-63
2023/05/05 13:21:12;;;;;;;3.75;2.05;;;;;;;;;;5040383;28;20412;-65
2023/05/05 13:23:43;;;;;;;3.10;2.10;;;;;;;;;;5050207;28;20521;-65
2023/05/05 13:26:10;;;;;;;5.47;2.53;;;;;;;;;;5039745;28;20415;-64
2023/05/05 13:28:37;;;;;;;3.47;2.30;;;;;;;;;;5042101;28;20444;-63
2023/05/05 13:31:04;;;;;;;4.00;2.42;;;;;;;;;;5043750;28;20421;-67
2023/05/05 13:33:33;;;;;;;2.58;2.38;;;;;;;;;;5050095;28;20457;-63
2023/05/05 13:36:00;;;;;;;5.47;2.50;;;;;;;;;;5047358;28;20470;-63
2023/05/05 13:38:27;;;;;;;4.45;2.90;;;;;;;;;;5046491;28;20480;-64
2023/05/05 13:40:55;;;;;;;3.42;2.70;;;;;;;;;;5040603;28;20422;-64
2023/05/05 13:43:22;;;;;;;5.55;3.28;;;;;;;;;;5038999;28;20427;-63
2023/05/05 13:45:49;;;;;;;4.50;2.90;;;;;;;;;;5039447;28;20445;-63
2023/05/05 13:48:16;;;;;;;3.53;2.80;;;;;;;;;;5040859;28;20417;-64
2023/05/05 13:50:43;;;;;;;5.38;3.33;;;;;;;;;;5051070;28;20552;-63
2023/05/05 13:53:10;;;;;;;7.77;4.10;;;;;;;;;;5046446;28;20568;-61
2023/05/05 13:55:37;;;;;;;4.80;3.75;;;;;;;;;;5052506;28;20498;-61
2023/05/05 13:58:07;;;;;;;5.80;3.78;;;;;;;;;;5043850;28;20418;-62
2023/05/05 14:00:34;;;;;;;6.45;3.50;;;;;;;;;;5033955;28;20411;-61
2023/05/05 14:03:01;;;;;;;6.03;3.50;;;;;;;;;;5033626;28;20430;-61
2023/05/05 14:05:28;;;;;;;4.35;3.25;;;;;;;;;;5034521;28;20477;-60
2023/05/05 14:07:55;;;;;;;4.97;3.42;;;;;;;;;;5033233;28;20414;-59
2023/05/05 14:10:24;;;;;;;5.40;3.37;;;;;;;;;;5038945;28;20427;-62
2023/05/05 14:12:52;;;;;;;5.43;3.35;;;;;;;;;;5043572;28;20502;-61
2023/05/05 14:15:20;;;;;;;4.43;3.42;;;;;;;;;;5042634;28;20461;-63
2023/05/05 14:17:47;;;;;;;4.17;3.33;;;;;;;;;;5041728;28;20468;-63
2023/05/05 14:20:14;;;;;;;4.70;3.63;;;;;;;;;;5043030;28;20419;-63
2023/05/05 14:22:41;;;;;;;7.67;3.90;;;;;;;;;;5049756;28;20413;-63
2023/05/05 14:25:09;;;;;;;6.22;4.05;;;;;;;;;;5049587;28;20421;-62
2023/05/05 14:27:35;;;;;;;7.15;4.10;;;;;;;;;;5041749;28;20417;-63
2023/05/05 14:30:03;;;;;;;5.50;3.88;;;;;;;;;;5042344;28;20414;-62
2023/05/05 14:32:31;;;;;;;5.53;3.97;;;;;;;;;;5042972;28;20414;-62
2023/05/05 14:34:58;;;;;;;6.18;4.55;;;;;;;;;;5045179;28;20423;-63
2023/05/05 14:37:25;;;;;;;6.75;4.35;;;;;;;;;;5042927;28;20467;-67
2023/05/05 14:39:53;;;;;;;6.28;4.60;;;;;;;;;;5053630;28;20439;-58
2023/05/05 14:42:20;;;;;;;7.13;4.45;;;;;;;;;;5046960;28;20418;-57